Time;durP1;ratioP1;P1;durP2;ratioP2;P2;SDS_P1;SDS_P2;PMS_P1;PMS_P2;Temp;Humidity;BMP_temperature;BMP_pressure;BME280_temperature;BME280_humidity;BME280_pressure;Samples;Min_cycle;Max_cycle;Signal;HPM_P1;HPM_P2
2022/07/14 00:01:09;;;;;;;4.80;1.48;;;;;;;22.37;52.36;98839.16;4109656;28;20253;-51
2022/07/14 00:03:11;;;;;;;1.17;1.08;;;;;;;22.34;52.72;98839.78;4146325;28;20594;-52
2022/07/14 00:05:13;;;;;;;1.10;1.00;;;;;;;22.10;53.17;98836.53;4110802;28;20600;-53
2022/07/14 00:07:15;;;;;;;1.73;1.30;;;;;;;;;;4143379;28;20217;-52
2022/07/14 00:09:16;;;;;;;3.75;1.08;;;;;;;22.16;52.79;98843.59;4126639;28;20218;-52
2022/07/14 00:11:18;;;;;;;1.58;0.93;;;;;;;22.23;52.59;98844.81;4121712;28;20292;-52
2022/07/14 00:13:20;;;;;;;0.93;0.90;;;;;;;22.21;52.81;98847.09;4144945;28;20219;-53
2022/07/14 00:15:22;;;;;;;1.10;0.93;;;;;;;22.15;52.96;98841.94;4124463;28;20424;-51
2022/07/14 00:17:23;;;;;;;2.50;1.30;;;;;;;22.10;53.12;98845.69;4145232;28;20269;-51
2022/07/14 00:19:25;;;;;;;2.72;1.00;;;;;;;22.06;53.15;98843.84;4127724;28;20317;-51
2022/07/14 00:21:27;;;;;;;2.60;1.27;;;;;;;22.04;53.45;98840.56;4142770;28;20263;-53
2022/07/14 00:23:29;;;;;;;1.00;1.00;;;;;;;22.03;53.61;98836.16;4124155;28;20218;-53
2022/07/14 00:25:30;;;;;;;2.03;1.10;;;;;;;21.97;53.71;98838.22;4125374;28;20249;-51
2022/07/14 00:27:32;;;;;;;1.52;1.08;;;;;;;21.92;53.86;98843.09;4144215;28;20208;-52
2022/07/14 00:29:35;;;;;;;1.10;1.00;;;;;;;21.88;53.90;98847.63;4108796;28;20234;-52
2022/07/14 00:31:37;;;;;;;1.25;0.90;;;;;;;21.86;54.17;98841.56;4140439;28;20220;-52
2022/07/14 00:33:40;;;;;;;2.50;1.55;;;;;;;21.95;54.27;98845.22;4125747;28;20603;-53
2022/07/14 00:35:42;;;;;;;5.80;1.27;;;;;;;21.88;54.16;98830.91;4124573;28;20229;-52
2022/07/14 00:37:43;;;;;;;1.30;1.17;;;;;;;21.78;54.35;98836.75;4124135;28;20210;-52
2022/07/14 00:39:54;;;;;;;2.35;1.45;;;;;;;21.71;54.42;98830.78;4125057;28;20237;-53
2022/07/14 00:41:56;;;;;;;1.13;1.02;;;;;;;21.67;54.25;98835.31;4121464;28;20232;-51
2022/07/14 00:43:57;;;;;;;1.40;1.25;;;;;;;21.71;54.49;98841.94;4124123;28;20305;-51
2022/07/14 00:45:59;;;;;;;1.55;1.33;;;;;;;21.62;54.90;98830.66;4141777;28;20774;-52
2022/07/14 00:48:01;;;;;;;2.55;1.20;;;;;;;21.59;54.76;98830.47;4129920;28;20221;-52
2022/07/14 00:50:05;;;;;;;2.65;1.30;;;;;;;21.54;54.87;98825.84;4125118;28;20239;-51
2022/07/14 00:52:12;;;;;;;1.30;1.20;;;;;;;21.51;54.72;98826.47;4122993;28;20217;-51
2022/07/14 00:54:25;;;;;;;1.25;1.10;;;;;;;21.50;55.01;98826.78;4126077;28;20260;-52
2022/07/14 00:56:27;;;;;;;1.40;1.27;;;;;;;21.44;55.45;98820.50;4141179;28;20291;-51
2022/07/14 00:58:28;;;;;;;2.75;1.33;;;;;;;21.41;55.18;98820.28;4124742;28;20222;-51
2022/07/14 01:00:31;;;;;;;1.83;1.10;;;;;;;21.33;55.72;98827.44;4123496;28;20233;-51
2022/07/14 01:02:32;;;;;;;2.03;1.38;;;;;;;21.30;55.79;98819.69;4108303;28;20217;-51
2022/07/14 01:04:34;;;;;;;2.00;1.75;;;;;;;21.04;56.31;98820.56;4139068;28;20255;-52
2022/07/14 01:06:36;;;;;;;1.55;1.30;;;;;;;21.04;56.38;98813.03;4123614;28;20201;-51
2022/07/14 01:08:38;;;;;;;1.33;1.15;;;;;;;21.04;56.16;98815.00;4111489;28;20210;-53
2022/07/14 01:10:40;;;;;;;1.90;1.40;;;;;;;21.08;55.82;98816.00;4125424;28;20818;-51
2022/07/14 01:12:46;;;;;;;2.10;1.40;;;;;;;21.15;56.13;98821.97;4123397;28;20209;-51
2022/07/14 01:14:48;;;;;;;2.15;1.60;;;;;;;21.23;56.04;98813.72;4128551;28;20205;-51
2022/07/14 01:16:55;;;;;;;1.95;1.40;;;;;;;21.16;56.19;98816.13;4124863;28;20280;-53
2022/07/14 01:18:56;;;;;;;1.85;1.65;;;;;;;21.15;55.97;98811.69;4121652;28;20788;-51
2022/07/14 01:20:58;;;;;;;1.50;1.40;;;;;;;21.14;55.99;98812.81;4123853;28;20308;-51
2022/07/14 01:23:01;;;;;;;4.10;1.30;;;;;;;21.14;56.07;98806.41;4127239;28;20693;-53
2022/07/14 01:25:06;;;;;;;5.78;1.60;;;;;;;21.26;55.94;98798.38;4108908;28;20202;-51
2022/07/14 01:27:08;;;;;;;2.53;1.50;;;;;;;21.01;56.26;98799.75;4137054;28;20898;-51
2022/07/14 01:29:10;;;;;;;5.22;1.60;;;;;;;20.98;56.15;98799.53;4123935;28;20225;-52
2022/07/14 01:31:11;;;;;;;1.38;1.27;;;;;;;21.02;55.96;98806.13;4124914;28;20260;-51
2022/07/14 01:33:13;;;;;;;1.98;1.55;;;;;;;21.02;56.35;98804.16;4126757;28;20201;-51
2022/07/14 01:35:15;;;;;;;1.98;1.38;;;;;;;21.01;56.41;98802.53;4120496;28;20213;-51
2022/07/14 01:37:20;;;;;;;2.25;1.63;;;;;;;20.95;56.33;98805.72;4124672;28;20222;-51
2022/07/14 01:39:22;;;;;;;2.92;1.88;;;;;;;20.91;56.55;98796.34;4124679;28;20279;-51
2022/07/14 01:41:24;;;;;;;1.52;1.40;;;;;;;20.92;56.58;98798.81;4123456;28;20300;-53
2022/07/14 01:43:25;;;;;;;2.30;1.48;;;;;;;20.91;56.50;98796.34;4126046;28;20678;-51
2022/07/14 01:45:27;;;;;;;1.20;1.10;;;;;;;20.89;56.62;98799.44;4120986;28;20209;-52
2022/07/14 01:47:29;;;;;;;1.70;1.40;;;;;;;20.85;56.61;98800.34;4123992;28;20272;-51
2022/07/14 01:49:30;;;;;;;1.52;1.40;;;;;;;20.82;57.03;98801.78;4128639;28;20234;-51
2022/07/14 01:51:32;;;;;;;1.73;1.58;;;;;;;20.80;57.05;98795.72;4128034;28;20656;-51
2022/07/14 01:53:34;;;;;;;1.75;1.65;;;;;;;20.80;57.33;98803.22;4129101;28;20210;-51
2022/07/14 01:55:36;;;;;;;2.15;1.85;;;;;;;20.69;57.68;98793.41;4142172;28;20205;-52
2022/07/14 01:57:38;;;;;;;2.47;1.70;;;;;;;20.64;57.91;98793.53;4120776;28;20211;-51
2022/07/14 01:59:40;;;;;;;1.50;1.35;;;;;;;20.58;57.60;98792.00;4126936;28;20230;-51
2022/07/14 02:01:42;;;;;;;1.40;1.30;;;;;;;20.57;57.92;98793.94;4126789;28;20209;-53
2022/07/14 02:03:45;;;;;;;1.48;1.38;;;;;;;20.57;57.98;98787.56;4123972;28;20581;-51
2022/07/14 02:05:47;;;;;;;5.40;1.45;;;;;;;20.50;58.25;98784.38;4124630;28;20213;-51
2022/07/14 02:07:48;;;;;;;2.17;1.55;;;;;;;20.46;58.37;98786.09;4122298;28;20214;-52
2022/07/14 02:12:10;;;;;;;1.70;1.30;;;;;;;20.33;58.56;98787.75;4142569;28;20201;-53
2022/07/14 02:14:12;;;;;;;1.02;1.00;;;;;;;20.33;58.63;98786.91;4123922;28;20260;-53
2022/07/14 02:16:14;;;;;;;1.48;1.23;;;;;;;20.35;58.67;98787.41;4123834;28;20226;-53
2022/07/14 02:18:16;;;;;;;2.25;1.48;;;;;;;20.28;58.65;98789.78;4124092;28;20587;-53
2022/07/14 02:20:18;;;;;;;1.95;1.50;;;;;;;20.24;58.79;98781.22;4124722;28;20236;-53
2022/07/14 02:22:19;;;;;;;2.40;1.38;;;;;;;20.31;58.70;98784.41;4123722;28;20328;-52
2022/07/14 02:24:22;;;;;;;1.55;1.38;;;;;;;20.28;58.52;98779.50;4122949;28;20205;-52
2022/07/14 02:26:24;;;;;;;4.75;2.17;;;;;;;20.25;58.88;98782.06;4125866;28;20257;-51
2022/07/14 02:28:25;;;;;;;1.60;1.30;;;;;;;20.16;59.27;98770.81;4124731;28;20216;-51
2022/07/14 02:30:27;;;;;;;2.25;1.40;;;;;;;20.11;58.86;98767.31;4123481;28;21310;-52
2022/07/14 02:32:31;;;;;;;2.22;1.40;;;;;;;20.10;58.95;98772.03;4125085;28;20218;-51
2022/07/14 02:34:32;;;;;;;2.03;1.80;;;;;;;20.08;58.90;98774.31;4124211;28;20681;-52
2022/07/14 02:36:34;;;;;;;1.60;1.50;;;;;;;20.09;58.58;98775.94;4107702;28;20219;-54
2022/07/14 02:38:36;;;;;;;2.95;1.38;;;;;;;20.07;59.06;98771.81;4143313;28;20213;-53
2022/07/14 02:40:38;;;;;;;2.72;1.55;;;;;;;20.05;59.27;98772.09;4125462;28;20277;-53
2022/07/14 02:42:40;;;;;;;1.85;1.60;;;;;;;19.97;59.36;98771.97;4141018;28;20201;-53
2022/07/14 02:44:41;;;;;;;2.38;1.60;;;;;;;19.94;59.24;98778.13;4123504;28;20696;-52
2022/07/14 02:46:43;;;;;;;1.60;1.50;;;;;;;19.93;59.58;98782.03;4124057;28;20264;-53
2022/07/14 02:48:45;;;;;;;1.83;1.42;;;;;;;19.86;59.65;98776.06;4110534;28;20302;-52
2022/07/14 02:50:47;;;;;;;2.63;1.48;;;;;;;19.77;59.76;98783.44;4119851;28;20221;-53
2022/07/14 02:52:49;;;;;;;3.75;2.08;;;;;;;19.75;59.44;98785.66;4107865;28;20215;-51
2022/07/14 02:54:51;;;;;;;6.68;1.80;;;;;;;19.74;59.97;98781.25;4124119;28;20210;-52
2022/07/14 02:56:52;;;;;;;6.32;1.80;;;;;;;19.73;60.13;98782.38;4121097;28;20222;-53
2022/07/14 02:58:54;;;;;;;1.98;1.70;;;;;;;19.73;60.11;98782.38;4125358;28;20773;-52
2022/07/14 03:00:56;;;;;;;1.95;1.85;;;;;;;19.65;60.28;98783.06;4127577;28;20218;-51
2022/07/14 03:02:58;;;;;;;2.17;1.73;;;;;;;19.59;60.12;98787.06;4127312;28;20293;-51
2022/07/14 03:05:02;;;;;;;2.00;1.83;;;;;;;19.58;60.30;98786.22;4125745;28;20238;-53
2022/07/14 03:07:03;;;;;;;1.60;1.50;;;;;;;19.60;60.35;98788.69;4109920;28;20732;-53
2022/07/14 03:09:05;;;;;;;2.83;2.63;;;;;;;19.63;60.43;98799.19;4124363;28;20234;-51
2022/07/14 03:11:07;;;;;;;1.85;1.67;;;;;;;19.60;60.34;98794.25;4108339;28;20206;-53
2022/07/14 03:13:10;;;;;;;3.92;1.73;;;;;;;19.55;59.99;98797.94;4140490;28;20221;-53
2022/07/14 03:15:12;;;;;;;2.33;1.50;;;;;;;19.54;60.36;98799.06;4119572;28;20707;-52
2022/07/14 03:17:15;;;;;;;2.10;1.90;;;;;;;19.50;60.47;98795.22;4124950;28;20226;-52
2022/07/14 03:19:17;;;;;;;7.95;1.73;;;;;;;19.44;60.54;98801.19;4108333;28;20234;-51
2022/07/14 03:21:19;;;;;;;1.92;1.67;;;;;;;19.45;60.58;98800.03;4123383;28;20265;-52
2022/07/14 03:23:21;;;;;;;3.97;1.85;;;;;;;19.34;61.24;98795.75;4105569;28;20211;-53
2022/07/14 03:25:23;;;;;;;2.08;1.63;;;;;;;19.31;61.10;98796.38;4140365;28;20216;-52
2022/07/14 03:27:25;;;;;;;2.38;1.90;;;;;;;19.31;60.90;98801.91;4123839;28;20202;-52
2022/07/14 03:29:27;;;;;;;5.57;1.98;;;;;;;19.34;61.19;98804.91;4123750;28;20626;-53
2022/07/14 03:31:29;;;;;;;4.88;2.08;;;;;;;19.31;60.82;98807.47;4142367;28;20280;-51
2022/07/14 03:33:30;;;;;;;6.15;1.95;;;;;;;19.34;60.92;98812.41;4112814;28;20230;-52
2022/07/14 03:35:36;;;;;;;1.58;1.42;;;;;;;19.35;60.92;98802.94;4126308;28;20206;-51
2022/07/14 03:37:38;;;;;;;2.30;1.83;;;;;;;19.33;61.19;98816.31;4128823;28;20621;-52
2022/07/14 03:39:39;;;;;;;1.92;1.60;;;;;;;19.27;61.27;98795.31;4112646;28;20582;-51
2022/07/14 03:41:41;;;;;;;1.77;1.67;;;;;;;19.22;61.49;98806.47;4137154;28;20214;-51
2022/07/14 03:43:43;;;;;;;1.70;1.60;;;;;;;19.18;61.72;98802.63;4130595;28;20728;-51
2022/07/14 03:45:45;;;;;;;2.13;1.83;;;;;;;19.10;61.88;98817.97;4130889;28;20241;-52
2022/07/14 03:47:47;;;;;;;2.47;1.80;;;;;;;19.09;61.83;98815.50;4129947;28;20693;-51
2022/07/14 03:49:49;;;;;;;3.50;1.80;;;;;;;19.11;61.87;98818.81;4114634;28;20249;-51
2022/07/14 03:51:52;;;;;;;2.72;1.60;;;;;;;19.11;62.02;98818.81;4129453;28;20677;-51
2022/07/14 03:53:54;;;;;;;1.90;1.80;;;;;;;19.14;62.06;98805.16;4111621;28;20215;-54
2022/07/14 03:55:59;;;;;;;2.60;2.05;;;;;;;19.01;62.00;98808.69;4126765;28;20214;-51
2022/07/14 03:58:01;;;;;;;2.85;1.80;;;;;;;18.95;62.18;98809.88;4144033;28;20237;-53
2022/07/14 04:00:04;;;;;;;2.30;1.90;;;;;;;18.92;62.10;98809.63;4127084;28;20296;-52
2022/07/14 04:02:05;;;;;;;2.63;2.00;;;;;;;18.93;62.14;98797.41;4144376;28;20240;-51
2022/07/14 04:04:07;;;;;;;2.90;2.22;;;;;;;18.85;62.55;98792.53;4123287;28;20637;-52
2022/07/14 04:06:09;;;;;;;3.20;1.80;;;;;;;18.83;62.47;98783.66;4129482;28;20249;-53
2022/07/14 04:08:11;;;;;;;2.22;2.03;;;;;;;18.52;63.37;98788.75;4113019;28;20261;-51
2022/07/14 04:10:13;;;;;;;2.53;1.80;;;;;;;18.11;64.67;98775.59;4124099;28;20233;-51
2022/07/14 04:12:14;;;;;;;2.42;1.88;;;;;;;17.94;65.20;98769.66;4126243;28;20206;-52
2022/07/14 04:14:23;;;;;;;3.35;2.83;;;;;;;17.75;65.96;98760.41;4128605;28;20216;-51
2022/07/14 04:16:25;;;;;;;13.15;2.35;;;;;;;17.60;66.52;98753.06;4125249;28;20652;-50
2022/07/14 04:18:27;;;;;;;10.50;4.07;;;;;;;17.57;66.77;98752.81;4146870;28;20209;-51
2022/07/14 04:20:29;;;;;;;12.98;3.25;;;;;;;17.67;66.35;98755.50;4124846;28;20934;-52
2022/07/14 04:22:31;;;;;;;11.77;3.00;;;;;;;17.63;66.50;98744.19;4127551;28;20272;-52
2022/07/14 04:24:41;;;;;;;14.60;2.47;;;;;;;17.69;66.23;98750.50;4129236;28;20220;-51
2022/07/14 04:26:43;;;;;;;6.60;2.63;;;;;;;17.61;66.64;98742.81;4125429;28;20678;-51
2022/07/14 04:28:45;;;;;;;5.43;2.03;;;;;;;17.74;66.04;98750.47;4126018;28;20266;-51
2022/07/14 04:30:47;;;;;;;7.85;2.85;;;;;;;17.73;66.22;98751.59;4120478;28;20215;-51
2022/07/14 04:32:53;;;;;;;3.58;2.05;;;;;;;17.81;66.09;98753.72;4127336;28;20210;-51
2022/07/14 04:34:54;;;;;;;6.10;1.70;;;;;;;17.96;65.67;98751.63;4124314;28;20665;-52
2022/07/14 04:36:56;;;;;;;5.78;2.00;;;;;;;18.08;65.21;98749.31;4125243;28;20222;-51
2022/07/14 04:38:58;;;;;;;2.72;1.65;;;;;;;18.28;64.55;98746.31;4124402;28;20222;-52
2022/07/14 04:41:00;;;;;;;12.10;1.92;;;;;;;18.40;64.45;98743.16;4121330;28;20203;-51
2022/07/14 04:43:02;;;;;;;3.45;1.45;;;;;;;18.50;64.35;98743.03;4125818;28;20237;-51
2022/07/14 04:45:04;;;;;;;7.35;1.75;;;;;;;18.62;63.90;98754.53;4122702;28;20214;-51
2022/07/14 04:47:06;;;;;;;5.93;1.60;;;;;;;18.75;63.58;98762.13;4126239;28;20202;-51
2022/07/14 04:53:48;;;;;;;2.25;2.05;;;;;;;19.09;62.94;98768.31;4141279;28;20205;-51
2022/07/14 04:55:50;;;;;;;1.98;1.48;;;;;;;19.16;62.98;98766.00;4123943;28;20210;-51
2022/07/14 04:57:51;;;;;;;3.63;1.60;;;;;;;19.25;62.97;98769.81;4124409;28;20218;-52
2022/07/14 04:59:53;;;;;;;3.22;1.98;;;;;;;19.28;62.97;98774.75;4124353;28;20729;-52
2022/07/14 05:01:55;;;;;;;5.90;1.48;;;;;;;19.34;62.80;98773.56;4125148;28;20257;-51
2022/07/14 05:03:57;;;;;;;2.70;1.40;;;;;;;19.40;62.66;98780.69;4123230;28;20218;-51
2022/07/14 05:06:04;;;;;;;5.43;1.85;;;;;;;19.51;62.78;98787.75;4143540;28;20327;-51
2022/07/14 05:08:06;;;;;;;2.65;1.85;;;;;;;19.43;62.92;98777.28;4126573;28;20206;-51
2022/07/14 05:10:08;;;;;;;1.98;1.88;;;;;;;19.48;62.64;98777.22;4125852;28;20228;-51
2022/07/14 05:12:13;;;;;;;2.17;1.80;;;;;;;19.54;62.41;98779.63;4125294;28;20654;-50
2022/07/14 05:14:15;;;;;;;6.50;2.08;;;;;;;19.61;62.33;98770.91;4127049;28;20217;-50
2022/07/14 05:16:16;;;;;;;4.82;2.10;;;;;;;19.67;62.36;98778.03;4125902;28;20202;-50
2022/07/14 05:18:18;;;;;;;5.03;1.75;;;;;;;19.72;62.34;98775.19;4127290;28;20234;-50
2022/07/14 05:20:20;;;;;;;2.22;1.90;;;;;;;19.52;63.28;98775.50;4122475;28;20241;-50
2022/07/14 05:22:23;;;;;;;2.75;2.15;;;;;;;19.44;63.48;98776.19;4121688;28;20218;-51
2022/07/14 05:24:25;;;;;;;3.75;2.10;;;;;;;19.18;64.26;98766.56;4125793;28;20218;-51
2022/07/14 05:26:26;;;;;;;3.22;1.85;;;;;;;19.05;64.70;98770.06;4126402;28;20586;-50
2022/07/14 05:28:31;;;;;;;3.42;2.58;;;;;;;19.01;64.72;98763.44;4139001;28;20288;-51
2022/07/14 05:30:33;;;;;;;2.42;2.10;;;;;;;18.97;64.98;98767.97;4122060;28;20229;-50
2022/07/14 05:32:36;;;;;;;2.75;2.55;;;;;;;18.99;64.85;98760.16;4109359;28;20207;-50
2022/07/14 05:34:42;;;;;;;2.60;2.40;;;;;;;19.08;64.73;98763.91;4120546;28;20242;-50
2022/07/14 05:36:44;;;;;;;4.28;2.85;;;;;;;19.24;64.13;98765.38;4122019;28;20214;-51
2022/07/14 05:38:49;;;;;;;11.45;2.75;;;;;;;19.28;63.88;98758.09;4123750;28;20210;-50
2022/07/14 05:40:51;;;;;;;14.90;2.65;;;;;;;19.30;63.88;98755.84;4119757;28;20218;-51
2022/07/14 05:42:53;;;;;;;7.28;2.80;;;;;;;19.33;63.67;98756.09;4117532;28;20207;-51
2022/07/14 05:44:55;;;;;;;7.20;3.65;;;;;;;19.45;63.30;98750.06;4121518;28;20210;-51
2022/07/14 05:46:57;;;;;;;10.15;2.72;;;;;;;19.54;63.05;98745.47;4125378;28;20558;-51
2022/07/14 05:48:59;;;;;;;5.30;2.20;;;;;;;19.66;62.30;98748.63;4124373;28;20783;-52
2022/07/14 05:51:27;;;;;;;6.28;1.80;;;;;;;19.61;62.07;98751.47;4125113;28;20346;-50
2022/07/14 05:53:29;;;;;;;2.22;1.90;;;;;;;19.54;62.09;98751.03;4141007;28;20217;-51
2022/07/14 05:55:31;;;;;;;2.22;1.95;;;;;;;19.66;62.31;98754.16;4142642;28;20221;-51
2022/07/14 05:57:32;;;;;;;2.13;1.65;;;;;;;19.78;62.13;98757.31;4121169;28;20344;-51
2022/07/14 05:59:41;;;;;;;2.53;1.80;;;;;;;19.94;62.29;98751.19;4108600;28;20223;-52
2022/07/14 06:01:47;;;;;;;2.85;1.98;;;;;;;20.12;62.65;98761.41;4123765;28;20678;-52
2022/07/14 06:03:54;;;;;;;2.03;1.83;;;;;;;20.28;62.64;98756.41;4107416;28;20215;-51
2022/07/14 06:06:03;;;;;;;4.57;2.10;;;;;;;20.40;62.90;98754.81;4124703;28;20201;-52
2022/07/14 06:08:05;;;;;;;2.53;1.80;;;;;;;20.46;61.87;98761.91;4124779;28;20209;-52
2022/07/14 06:10:10;;;;;;;8.70;1.92;;;;;;;20.52;62.13;98752.31;4122154;28;20284;-51
2022/07/14 06:12:12;;;;;;;2.58;2.38;;;;;;;20.72;62.91;98762.22;4140225;28;20224;-51
2022/07/14 06:14:14;;;;;;;2.67;1.63;;;;;;;20.84;61.97;98754.19;4124602;28;20222;-52
2022/07/14 06:16:19;;;;;;;3.42;2.20;;;;;;;20.88;61.21;98760.78;4117664;28;20972;-52
2022/07/14 06:18:21;;;;;;;2.00;1.80;;;;;;;20.98;62.39;98760.59;4121178;28;20238;-52
2022/07/14 06:20:23;;;;;;;7.00;1.92;;;;;;;21.02;62.22;98759.63;4123596;28;20237;-51
2022/07/14 06:22:25;;;;;;;3.63;2.22;;;;;;;21.01;61.41;98766.34;4122944;28;20211;-52
2022/07/14 06:24:27;;;;;;;11.23;2.05;;;;;;;21.03;61.99;98766.00;4117548;28;20206;-53
2022/07/14 06:26:29;;;;;;;9.30;2.15;;;;;;;21.06;61.94;98765.41;4123889;28;20268;-52
2022/07/14 06:28:30;;;;;;;5.38;2.00;;;;;;;21.06;61.83;98759.84;4124346;28;20696;-52
2022/07/14 06:30:33;;;;;;;2.20;2.00;;;;;;;21.04;61.66;98753.78;4122778;28;20277;-52
2022/07/14 06:32:40;;;;;;;2.22;1.77;;;;;;;21.12;61.80;98761.38;4111302;28;20230;-51
2022/07/14 06:34:42;;;;;;;8.13;2.30;;;;;;;21.46;61.49;98756.13;4102484;28;20210;-51
2022/07/14 06:36:44;;;;;;;4.63;1.85;;;;;;;21.69;60.32;98755.03;4143766;28;20224;-51
2022/07/14 06:38:48;;;;;;;6.40;1.95;;;;;;;21.81;60.42;98752.50;4142809;28;20279;-51
2022/07/14 06:40:50;;;;;;;6.72;1.90;;;;;;;21.96;60.16;98755.72;4120008;28;20214;-51
2022/07/14 06:42:52;;;;;;;3.80;1.98;;;;;;;21.90;59.26;98768.16;4112016;28;20269;-51
2022/07/14 06:44:53;;;;;;;2.58;1.77;;;;;;;22.19;59.05;98753.75;4127354;28;20209;-52
2022/07/14 06:46:56;;;;;;;4.50;2.40;;;;;;;22.32;56.96;98752.84;4125924;28;20272;-51
2022/07/14 06:48:58;;;;;;;6.65;2.60;;;;;;;22.30;57.35;98749.56;4127302;28;20268;-52
2022/07/14 06:51:03;;;;;;;3.65;2.65;;;;;;;22.53;57.18;98745.56;4119114;28;20206;-51
2022/07/14 06:53:09;;;;;;;5.22;2.10;;;;;;;22.88;57.41;98750.13;4144650;28;20291;-51
2022/07/14 06:55:11;;;;;;;17.80;3.28;;;;;;;22.98;55.04;98744.25;4126642;28;20626;-51
2022/07/14 06:57:13;;;;;;;5.05;2.03;;;;;;;22.87;55.13;98740.13;4126974;28;20644;-51
2022/07/14 06:59:14;;;;;;;4.18;2.85;;;;;;;22.78;56.71;98733.69;4128209;28;20624;-51
2022/07/14 07:01:16;;;;;;;3.13;2.75;;;;;;;22.55;55.19;98740.50;4127140;28;20689;-51
2022/07/14 07:03:18;;;;;;;7.15;2.10;;;;;;;22.62;55.72;98740.84;4125954;28;20224;-51
2022/07/14 07:07:43;;;;;;;3.97;2.17;;;;;;;23.22;56.49;98745.47;4143148;28;20227;-51
2022/07/14 07:09:44;;;;;;;5.03;2.00;;;;;;;23.59;55.10;98744.03;4145127;28;21099;-51
2022/07/14 07:11:49;;;;;;;2.55;2.10;;;;;;;23.59;55.59;98749.63;4126724;28;20216;-51
2022/07/14 07:13:51;;;;;;;3.05;2.13;;;;;;;23.57;54.83;98741.56;4108904;28;20249;-51
2022/07/14 07:15:53;;;;;;;4.65;2.25;;;;;;;23.79;53.76;98742.22;4116708;28;20229;-52
2022/07/14 07:17:55;;;;;;;3.53;1.73;;;;;;;23.83;52.70;98741.56;4127187;28;20241;-52
2022/07/14 07:20:00;;;;;;;6.65;2.00;;;;;;;23.72;53.77;98743.03;4143253;28;20275;-51
2022/07/14 07:22:02;;;;;;;4.10;1.70;;;;;;;24.00;53.52;98746.00;4126710;28;20601;-51
2022/07/14 07:24:08;;;;;;;4.80;1.80;;;;;;;23.92;51.58;98738.44;4124929;28;20301;-51
2022/07/14 07:26:09;;;;;;;6.70;1.70;;;;;;;23.87;51.54;98737.81;4125010;28;20209;-51
2022/07/14 07:28:11;;;;;;;5.47;2.80;;;;;;;24.18;52.58;98742.00;4126888;28;20724;-51
2022/07/14 07:30:13;;;;;;;2.45;1.83;;;;;;;24.12;52.09;98740.53;4124406;28;20229;-52
2022/07/14 07:32:14;;;;;;;7.97;2.20;;;;;;;24.25;52.13;98739.53;4140637;28;20620;-51
2022/07/14 07:34:16;;;;;;;4.10;1.60;;;;;;;24.24;51.60;98743.47;4126711;28;20213;-52
2022/07/14 07:36:18;;;;;;;6.22;2.00;;;;;;;24.61;52.24;98734.31;4108996;28;20418;-51
2022/07/14 07:38:19;;;;;;;3.70;2.05;;;;;;;24.79;50.68;98741.47;4125081;28;20240;-52
2022/07/14 07:40:21;;;;;;;1.60;1.50;;;;;;;25.14;49.88;98742.91;4122541;28;20230;-52
2022/07/14 07:42:23;;;;;;;5.38;1.40;;;;;;;25.18;49.59;98746.69;4140434;28;20205;-51
2022/07/14 07:44:25;;;;;;;3.25;1.70;;;;;;;24.94;48.45;98737.28;4124534;28;20209;-51
2022/07/14 07:46:27;;;;;;;5.60;1.15;;;;;;;25.14;48.91;98737.31;4111165;28;20720;-51
2022/07/14 07:48:29;;;;;;;1.73;1.40;;;;;;;25.21;49.48;98732.03;4124159;28;20194;-52
2022/07/14 07:50:32;;;;;;;12.63;1.73;;;;;;;25.25;48.91;98729.41;4141966;28;20268;-52
2022/07/14 07:52:33;;;;;;;2.08;1.55;;;;;;;25.28;48.17;98735.13;4122474;28;20328;-51
2022/07/14 07:54:36;;;;;;;3.08;1.52;;;;;;;25.16;47.66;98740.63;4141798;28;20231;-51
2022/07/14 07:56:59;;;;;;;6.95;1.40;;;;;;;25.39;50.03;98730.75;4123127;28;20201;-51
2022/07/14 07:59:01;;;;;;;14.75;2.13;;;;;;;25.50;47.74;98729.19;4142193;28;20233;-51
2022/07/14 08:01:03;;;;;;;4.25;1.40;;;;;;;25.71;48.48;98727.19;4109078;28;20206;-52
2022/07/14 08:03:06;;;;;;;1.67;1.23;;;;;;;25.88;48.52;98727.03;4123103;28;20210;-52
2022/07/14 08:05:08;;;;;;;4.13;1.42;;;;;;;25.91;47.63;98729.19;4126219;28;20218;-51
2022/07/14 08:07:29;;;;;;;6.28;1.48;;;;;;;26.13;47.84;98725.97;4124599;28;20240;-52
2022/07/14 08:09:31;;;;;;;7.45;1.80;;;;;;;26.12;48.15;98723.53;4140580;28;20640;-52
2022/07/14 08:11:33;;;;;;;2.30;1.65;;;;;;;26.11;47.08;98733.94;4125636;28;20664;-52
2022/07/14 08:13:35;;;;;;;7.33;1.67;;;;;;;26.15;47.19;98723.66;4121882;28;20460;-56
2022/07/14 08:15:37;;;;;;;6.53;1.50;;;;;;;26.23;45.47;98725.56;4110418;28;20504;-53
2022/07/14 08:17:39;;;;;;;5.10;1.20;;;;;;;25.97;44.81;98722.19;4132993;28;20209;-53
2022/07/14 08:19:42;;;;;;;13.23;1.88;;;;;;;26.51;46.20;98726.53;4132358;28;20233;-50
2022/07/14 08:21:43;;;;;;;4.20;1.60;;;;;;;26.69;46.93;98721.56;4132026;28;20569;-53
2022/07/14 08:23:45;;;;;;;1.80;1.30;;;;;;;26.68;45.44;98725.53;4132450;28;20217;-53
2022/07/14 08:25:47;;;;;;;6.53;1.42;;;;;;;26.60;46.60;98718.84;4123065;28;20210;-53
2022/07/14 08:27:48;;;;;;;5.50;1.58;;;;;;;27.00;47.02;98721.78;4132968;28;20210;-53
2022/07/14 08:29:50;;;;;;;1.33;1.23;;;;;;;27.02;44.25;98714.66;4130607;28;20280;-53
2022/07/14 08:31:52;;;;;;;3.42;1.38;;;;;;;26.96;46.10;98704.81;4148480;28;20209;-51
2022/07/14 08:33:57;;;;;;;5.18;1.52;;;;;;;27.53;46.01;98704.63;4132665;28;20217;-53
2022/07/14 08:35:59;;;;;;;2.58;2.03;;;;;;;27.45;44.67;98695.16;4148771;28;20299;-53
2022/07/14 08:38:01;;;;;;;2.03;1.83;;;;;;;27.68;45.16;98693.47;4148205;28;20233;-53
2022/07/14 08:40:15;;;;;;;5.45;1.92;;;;;;;27.21;43.46;98689.59;4147559;28;20278;-52
2022/07/14 08:42:17;;;;;;;3.17;1.95;;;;;;;27.01;42.98;98696.16;4148730;28;20214;-52
2022/07/14 08:44:19;;;;;;;4.45;1.40;;;;;;;27.44;44.32;98693.53;4132361;28;20205;-53
2022/07/14 08:46:22;;;;;;;2.08;1.42;;;;;;;27.17;45.08;98688.66;4133190;28;20689;-52
2022/07/14 08:48:25;;;;;;;5.63;1.60;;;;;;;27.70;45.15;98691.09;4130856;28;20209;-52
2022/07/14 08:50:27;;;;;;;3.60;1.52;;;;;;;28.02;42.82;98692.84;4130630;28;20617;-53
2022/07/14 08:52:29;;;;;;;2.05;1.38;;;;;;;27.85;41.60;98687.53;4128182;28;20727;-55
2022/07/14 08:54:33;;;;;;;3.78;1.65;;;;;;;27.54;41.71;98687.41;4122517;28;20700;-55
2022/07/14 08:56:35;;;;;;;11.70;1.45;;;;;;;27.99;42.59;98693.56;4145527;28;20259;-52
2022/07/14 08:58:39;;;;;;;3.53;2.30;;;;;;;28.34;42.90;98693.72;4126702;28;20296;-53
2022/07/14 09:00:41;;;;;;;9.00;1.75;;;;;;;28.32;42.25;98691.25;4122018;28;20227;-52
2022/07/14 09:02:51;;;;;;;2.78;1.52;;;;;;;28.08;43.28;98697.06;4131864;28;20296;-53
2022/07/14 09:05:13;;;;;;;2.45;1.60;;;;;;;28.40;42.29;98697.94;4128918;28;20264;-52
2022/07/14 09:07:32;;;;;;;5.03;1.58;;;;;;;28.83;42.75;98690.22;4111549;28;20289;-52
2022/07/14 09:09:34;;;;;;;3.13;2.10;;;;;;;28.50;41.04;98686.13;4127158;28;20225;-52
2022/07/14 09:11:36;;;;;;;4.95;1.20;;;;;;;28.59;40.48;98684.75;4110641;28;20210;-49
2022/07/14 09:13:38;;;;;;;4.30;1.40;;;;;;;28.83;41.67;98680.94;4111074;28;20286;-53
2022/07/14 09:15:46;;;;;;;12.05;1.70;;;;;;;28.76;40.87;98677.94;4126814;28;20201;-53
2022/07/14 09:17:53;;;;;;;6.90;1.30;;;;;;;28.72;42.59;98677.84;4125110;28;20223;-52
2022/07/14 09:20:07;;;;;;;9.10;1.95;;;;;;;28.72;41.31;98672.22;4128817;28;20259;-52
2022/07/14 09:22:09;;;;;;;3.22;1.95;;;;;;;28.80;42.45;98668.41;4119931;28;20214;-53
2022/07/14 09:24:14;;;;;;;7.90;1.70;;;;;;;28.82;42.24;98673.66;4128329;28;20281;-52
2022/07/14 09:26:20;;;;;;;5.20;1.67;;;;;;;28.96;41.06;98660.78;4127409;28;20775;-50
2022/07/14 09:28:26;;;;;;;4.13;1.42;;;;;;;29.28;41.93;98670.78;4118331;28;20206;-52
2022/07/14 09:30:28;;;;;;;6.28;1.35;;;;;;;29.27;41.84;98671.16;4127124;28;20304;-52
2022/07/14 09:33:03;;;;;;;9.00;2.83;;;;;;;28.85;42.70;98670.94;4127605;28;20217;-52
2022/07/14 09:35:05;;;;;;;7.80;1.20;;;;;;;29.11;42.48;98668.38;4127681;28;20205;-50
2022/07/14 09:37:15;;;;;;;2.28;1.45;;;;;;;29.41;42.18;98666.66;4144044;28;20657;-50
2022/07/14 09:39:18;;;;;;;3.08;1.60;;;;;;;29.56;40.60;98662.97;4127746;28;20287;-50
2022/07/14 09:41:20;;;;;;;6.03;1.30;;;;;;;29.41;41.25;98660.19;4142627;28;20204;-50
2022/07/14 09:43:22;;;;;;;3.28;1.33;;;;;;;29.27;43.68;98657.88;4121746;28;20611;-50
2022/07/14 09:45:26;;;;;;;4.55;1.30;;;;;;;29.43;42.33;98655.81;4143767;28;20274;-50
2022/07/14 09:47:27;;;;;;;4.95;1.40;;;;;;;29.58;42.64;98666.22;4143266;28;20263;-50
2022/07/14 09:49:33;;;;;;;3.97;1.15;;;;;;;29.98;42.24;98658.19;4126535;28;20241;-51